Time;durP1;ratioP1;P1;durP2;ratioP2;P2;SDS_P1;SDS_P2;PMS_P1;PMS_P2;Temp;Humidity;BMP_temperature;BMP_pressure;BME280_temperature;BME280_humidity;BME280_pressure;Samples;Min_cycle;Max_cycle;Signal;HPM_P1;HPM_P2
2023/11/11 00:01:59;;;;;;;3.22;2.20;;;8.90;99.90;;;;;;4161679;28;20038;-82
2023/11/11 00:03:59;;;;;;;4.55;3.33;;;8.90;99.90;;;;;;4171020;28;20079;-79
2023/11/11 00:06:00;;;;;;;5.60;4.18;;;8.90;99.90;;;;;;4167335;28;20463;-82
2023/11/11 00:08:01;;;;;;;5.28;3.92;;;8.90;99.90;;;;;;4179294;28;20068;-84
2023/11/11 00:10:02;;;;;;;7.05;4.57;;;8.90;99.90;;;;;;4178075;28;20041;-82
2023/11/11 00:12:07;;;;;;;6.03;4.50;;;8.90;99.90;;;;;;4178904;28;20044;-83
2023/11/11 00:14:10;;;;;;;6.55;4.68;;;8.90;99.90;;;;;;4178108;28;20047;-84
2023/11/11 00:16:11;;;;;;;6.47;5.00;;;9.00;99.90;;;;;;4164239;28;20537;-84
2023/11/11 00:18:12;;;;;;;9.00;5.55;;;9.00;99.90;;;;;;4174737;28;20033;-84
2023/11/11 00:20:13;;;;;;;9.13;6.13;;;9.00;99.90;;;;;;4168503;28;20049;-83
2023/11/11 00:22:13;;;;;;;11.13;6.38;;;9.00;99.90;;;;;;4176773;28;20045;-84
2023/11/11 00:24:14;;;;;;;9.98;7.05;;;9.00;99.90;;;;;;4179338;28;20041;-84
2023/11/11 00:26:15;;;;;;;12.57;8.18;;;9.00;99.90;;;;;;4166328;28;20044;-84
2023/11/11 00:28:16;;;;;;;16.75;9.85;;;9.00;99.90;;;;;;4164024;28;20033;-84
2023/11/11 00:30:17;;;;;;;15.77;9.13;;;9.00;99.90;;;;;;4169497;28;20393;-84
2023/11/11 00:32:17;;;;;;;16.30;9.50;;;9.10;99.90;;;;;;4161352;28;20043;-84
2023/11/11 00:34:20;;;;;;;14.23;9.13;;;9.10;99.90;;;;;;4162542;28;20046;-84
2023/11/11 00:36:20;;;;;;;13.85;9.68;;;9.00;99.90;;;;;;4163662;28;20046;-84
2023/11/11 00:38:21;;;;;;;15.68;10.48;;;9.00;99.90;;;;;;4178809;28;20475;-84
2023/11/11 00:40:21;;;;;;;13.80;9.10;;;9.00;99.90;;;;;;4173155;28;20116;-84
2023/11/11 00:42:22;;;;;;;14.60;10.02;;;9.10;99.90;;;;;;4172640;28;20476;-84
2023/11/11 00:44:23;;;;;;;15.75;10.02;;;9.10;99.90;;;;;;4178207;28;20420;-84
2023/11/11 00:46:23;;;;;;;15.63;11.13;;;9.10;99.90;;;;;;4187315;28;20033;-82
2023/11/11 00:48:24;;;;;;;14.52;9.57;;;9.10;99.90;;;;;;4178781;28;20392;-84
2023/11/11 00:50:25;;;;;;;15.00;10.23;;;9.00;99.90;;;;;;4172650;28;20029;-79
2023/11/11 00:52:25;;;;;;;12.52;9.13;;;9.00;99.90;;;;;;4177969;28;20044;-84
2023/11/11 00:54:26;;;;;;;14.70;9.10;;;9.00;99.90;;;;;;4178649;28;20107;-84
2023/11/11 00:56:28;;;;;;;15.57;9.07;;;9.00;99.90;;;;;;4173790;28;20435;-83
2023/11/11 00:58:30;;;;;;;12.68;8.35;;;9.00;99.90;;;;;;4163744;28;20473;-83
2023/11/11 01:00:31;;;;;;;12.02;8.80;;;9.00;99.90;;;;;;4167614;28;20465;-81
2023/11/11 01:02:31;;;;;;;14.10;9.20;;;8.90;99.90;;;;;;4173114;28;20029;-82
2023/11/11 01:04:32;;;;;;;12.35;8.52;;;9.00;99.90;;;;;;4178569;28;20033;-84
2023/11/11 01:06:33;;;;;;;12.23;8.55;;;8.90;99.90;;;;;;4174096;28;20446;-84
2023/11/11 01:08:33;;;;;;;11.88;7.70;;;9.00;99.90;;;;;;4178067;28;20120;-68
2023/11/11 01:10:37;;;;;;;12.60;8.27;;;9.00;99.90;;;;;;4175241;28;20082;-68
2023/11/11 01:12:38;;;;;;;11.32;7.85;;;9.00;99.90;;;;;;4177806;28;20029;-68
2023/11/11 01:14:39;;;;;;;11.40;8.63;;;8.90;99.90;;;;;;4177732;28;20036;-68
2023/11/11 01:16:40;;;;;;;12.75;8.60;;;9.00;99.90;;;;;;4174752;28;20033;-68
2023/11/11 01:18:40;;;;;;;12.23;8.57;;;9.00;99.90;;;;;;4176870;28;20041;-68
2023/11/11 01:20:41;;;;;;;11.63;7.97;;;8.90;99.90;;;;;;4173811;28;20040;-68
2023/11/11 01:22:42;;;;;;;11.88;8.70;;;8.90;99.90;;;;;;4174132;28;20033;-68
2023/11/11 01:24:43;;;;;;;13.90;8.82;;;8.90;99.90;;;;;;4177377;28;20035;-68
2023/11/11 01:26:44;;;;;;;16.67;9.05;;;8.90;99.90;;;;;;4175565;28;20025;-68
2023/11/11 01:28:45;;;;;;;14.35;9.45;;;8.90;99.90;;;;;;4177176;28;20622;-68
2023/11/11 01:30:45;;;;;;;13.25;8.68;;;8.80;99.90;;;;;;4175325;28;20060;-68
2023/11/11 01:32:46;;;;;;;14.20;7.93;;;8.80;99.90;;;;;;4174925;28;20112;-68
2023/11/11 01:34:47;;;;;;;13.70;8.55;;;8.80;99.90;;;;;;4192242;28;20040;-68
2023/11/11 01:36:47;;;;;;;13.50;9.05;;;8.80;99.90;;;;;;4172025;28;20033;-68
2023/11/11 01:38:48;;;;;;;12.60;8.35;;;8.80;99.90;;;;;;4176490;28;20086;-68
2023/11/11 01:40:48;;;;;;;12.13;7.80;;;8.80;99.90;;;;;;4175531;28;20043;-68
2023/11/11 01:42:49;;;;;;;13.68;9.20;;;8.80;99.90;;;;;;4176189;28;20570;-68
2023/11/11 01:44:50;;;;;;;11.93;7.90;;;8.70;99.90;;;;;;4177432;28;20048;-68
2023/11/11 01:46:51;;;;;;;12.65;8.63;;;8.80;99.90;;;;;;4175184;28;20083;-68
2023/11/11 01:48:52;;;;;;;13.90;8.40;;;8.70;99.90;;;;;;4176589;28;20509;-68
2023/11/11 01:50:53;;;;;;;11.95;8.43;;;8.70;99.90;;;;;;4175683;28;20064;-68
2023/11/11 01:52:54;;;;;;;13.52;9.15;;;8.60;99.90;;;;;;4190550;28;20103;-68
2023/11/11 01:54:55;;;;;;;11.85;8.38;;;8.70;99.90;;;;;;4173172;28;20056;-68
2023/11/11 01:56:57;;;;;;;13.35;8.30;;;8.70;99.90;;;;;;4175635;28;20063;-68
2023/11/11 01:58:58;;;;;;;13.45;8.68;;;8.60;99.90;;;;;;4175494;28;20032;-68
2023/11/11 02:00:59;;;;;;;11.65;7.72;;;8.70;99.90;;;;;;4175935;28;20041;-68
2023/11/11 02:03:00;;;;;;;11.85;8.07;;;8.60;99.90;;;;;;4174848;28;20385;-68
2023/11/11 02:05:01;;;;;;;10.45;7.53;;;8.60;99.90;;;;;;4176539;28;20041;-70
2023/11/11 02:07:01;;;;;;;10.73;7.25;;;8.60;99.90;;;;;;4160027;28;20047;-68
2023/11/11 02:09:03;;;;;;;10.80;7.20;;;8.60;99.90;;;;;;4163366;28;20044;-69
2023/11/11 02:11:08;;;;;;;11.75;7.43;;;8.60;99.90;;;;;;4176153;28;20118;-68
2023/11/11 02:13:09;;;;;;;10.93;8.25;;;8.60;99.90;;;;;;4174842;28;20033;-68
2023/11/11 02:15:11;;;;;;;10.43;7.38;;;8.60;99.90;;;;;;4157761;28;20610;-68
2023/11/11 02:17:11;;;;;;;14.73;8.35;;;8.60;99.90;;;;;;4166431;28;20041;-66
2023/11/11 02:19:12;;;;;;;11.20;7.78;;;8.50;99.90;;;;;;4155264;28;20104;-72
2023/11/11 02:21:12;;;;;;;11.50;7.18;;;8.50;99.90;;;;;;4156757;28;20383;-71
2023/11/11 02:23:14;;;;;;;12.63;6.50;;;8.50;99.90;;;;;;4158681;28;20034;-72
2023/11/11 02:25:14;;;;;;;12.13;6.80;;;8.50;99.90;;;;;;4158859;28;20088;-72
2023/11/11 02:27:15;;;;;;;13.07;7.18;;;8.50;99.90;;;;;;4159637;28;20472;-71
2023/11/11 02:29:15;;;;;;;10.13;6.60;;;8.50;99.90;;;;;;4174366;28;20041;-71
2023/11/11 02:31:16;;;;;;;13.45;7.53;;;8.50;99.90;;;;;;4164073;28;20033;-71
2023/11/11 02:33:17;;;;;;;10.70;7.70;;;8.50;99.90;;;;;;4156610;28;20422;-71
2023/11/11 02:35:17;;;;;;;12.40;7.13;;;8.40;99.90;;;;;;4159489;28;20049;-72
2023/11/11 02:37:18;;;;;;;9.93;7.07;;;8.40;99.90;;;;;;4159170;28;20117;-71
2023/11/11 02:39:19;;;;;;;9.85;6.72;;;8.40;99.90;;;;;;4156311;28;20045;-72
2023/11/11 02:41:19;;;;;;;9.52;6.18;;;8.40;99.90;;;;;;4142888;28;20045;-71
2023/11/11 02:43:20;;;;;;;11.52;7.18;;;8.40;99.90;;;;;;4181615;28;20082;-71
2023/11/11 02:45:23;;;;;;;12.05;7.15;;;8.40;99.90;;;;;;4157711;28;20396;-72
2023/11/11 02:47:23;;;;;;;;;;;8.40;99.90;;;;;;4176529;28;20108;-72
2023/11/11 02:49:24;;;;;;;8.48;6.18;;;8.40;99.90;;;;;;4174002;28;19921;-71
2023/11/11 02:51:24;;;;;;;13.43;7.28;;;8.40;99.90;;;;;;4186396;28;20519;-72
2023/11/11 02:53:25;;;;;;;12.05;7.18;;;8.40;99.90;;;;;;4170081;28;20045;-71
2023/11/11 02:55:26;;;;;;;10.85;6.53;;;8.40;99.90;;;;;;4178551;28;20433;-72
2023/11/11 02:57:26;;;;;;;10.13;6.10;;;8.40;99.90;;;;;;4173290;28;20030;-71
2023/11/11 02:59:27;;;;;;;10.43;6.47;;;8.40;99.90;;;;;;4162114;28;20033;-71
2023/11/11 03:01:35;;;;;;;11.85;6.53;;;8.40;99.90;;;;;;4158948;28;20473;-71
2023/11/11 03:03:35;;;;;;;9.20;6.28;;;8.40;99.90;;;;;;4160114;28;20041;-71
2023/11/11 03:05:36;;;;;;;11.57;6.47;;;8.40;99.90;;;;;;4187338;28;20432;-71
2023/11/11 03:07:37;;;;;;;6.90;5.15;;;8.40;99.90;;;;;;4176368;28;20078;-71
2023/11/11 03:09:41;;;;;;;9.45;6.30;;;8.40;99.90;;;;;;4155974;28;20041;-71
2023/11/11 03:11:41;;;;;;;8.88;5.35;;;8.40;99.90;;;;;;4175332;28;20044;-71
2023/11/11 03:13:42;;;;;;;8.15;5.80;;;8.40;99.90;;;;;;4175209;28;20469;-71
2023/11/11 03:15:42;;;;;;;10.98;6.00;;;8.40;99.90;;;;;;4191969;28;20384;-71
2023/11/11 03:17:45;;;;;;;18.02;6.00;;;8.40;99.90;;;;;;4186668;28;20407;-71
2023/11/11 03:19:45;;;;;;;10.35;6.43;;;8.40;99.90;;;;;;4171648;28;20378;-71
2023/11/11 03:21:46;;;;;;;10.75;5.25;;;8.40;99.90;;;;;;4174527;28;20049;-71
2023/11/11 03:23:46;;;;;;;8.48;5.18;;;8.40;99.90;;;;;;4170815;28;20057;-71
2023/11/11 03:25:47;;;;;;;8.43;5.22;;;8.40;99.90;;;;;;4175224;28;20412;-71
2023/11/11 03:27:48;;;;;;;9.13;4.95;;;8.40;99.90;;;;;;4176263;28;20086;-70
2023/11/11 03:29:48;;;;;;;10.70;4.80;;;8.40;99.90;;;;;;4167701;28;20033;-71
2023/11/11 03:31:49;;;;;;;9.38;4.78;;;8.40;99.90;;;;;;4158741;28;20037;-71
2023/11/11 03:33:49;;;;;;;7.97;5.40;;;8.40;99.90;;;;;;4174357;28;20036;-71
2023/11/11 03:35:51;;;;;;;9.20;4.97;;;8.40;99.90;;;;;;4192232;28;20047;-70
2023/11/11 03:37:51;;;;;;;7.95;4.72;;;8.40;99.90;;;;;;4181447;28;20038;-71
2023/11/11 03:39:52;;;;;;;7.45;4.78;;;8.40;99.90;;;;;;4171624;28;20473;-70
2023/11/11 03:41:52;;;;;;;6.70;4.28;;;8.30;99.90;;;;;;4161862;28;20060;-70
2023/11/11 03:43:54;;;;;;;7.03;4.13;;;8.40;99.90;;;;;;4177218;28;20124;-71
2023/11/11 03:45:54;;;;;;;8.55;4.70;;;8.40;99.90;;;;;;4195240;28;20086;-71
2023/11/11 03:47:55;;;;;;;5.80;3.75;;;8.30;99.90;;;;;;4195151;28;20036;-71
2023/11/11 03:49:56;;;;;;;7.90;4.47;;;8.30;99.90;;;;;;4177157;28;20051;-71
2023/11/11 03:51:56;;;;;;;8.63;4.18;;;8.30;99.90;;;;;;4162368;28;20048;-71
2023/11/11 03:53:57;;;;;;;5.95;3.38;;;8.30;99.90;;;;;;4176624;28;20037;-70
2023/11/11 03:56:02;;;;;;;7.38;3.22;;;8.30;99.90;;;;;;4194590;28;20037;-71
2023/11/11 03:58:03;;;;;;;6.90;3.40;;;8.30;99.90;;;;;;4193964;28;20108;-71
2023/11/11 04:00:11;;;;;;;5.20;3.20;;;8.30;99.90;;;;;;4166344;28;20029;-72
2023/11/11 04:02:11;;;;;;;5.05;2.90;;;8.30;99.90;;;;;;4162913;28;20030;-70
2023/11/11 04:04:12;;;;;;;8.40;3.15;;;8.30;99.90;;;;;;4173781;28;20074;-71
2023/11/11 04:06:13;;;;;;;6.30;3.03;;;8.30;99.90;;;;;;4177866;28;20044;-71
2023/11/11 04:08:14;;;;;;;6.70;3.30;;;8.30;99.90;;;;;;4177116;28;20469;-70
2023/11/11 04:10:18;;;;;;;4.72;2.88;;;8.30;99.90;;;;;;4176036;28;20045;-71
2023/11/11 04:12:18;;;;;;;5.40;2.85;;;8.30;99.90;;;;;;4179428;28;20461;-71
2023/11/11 04:14:19;;;;;;;9.15;3.15;;;8.40;99.90;;;;;;4178570;28;20041;-70
2023/11/11 04:16:21;;;;;;;6.85;3.03;;;8.40;99.90;;;;;;4178178;28;20047;-71
2023/11/11 04:18:21;;;;;;;4.93;2.70;;;8.40;99.90;;;;;;4175919;28;20478;-71
2023/11/11 04:20:22;;;;;;;6.57;2.70;;;8.40;99.90;;;;;;4174523;28;20040;-71
2023/11/11 04:22:23;;;;;;;8.55;3.15;;;8.40;99.90;;;;;;4178121;28;20132;-70
2023/11/11 04:24:24;;;;;;;6.35;2.30;;;8.30;99.90;;;;;;4185154;28;20032;-71
2023/11/11 04:26:25;;;;;;;4.45;2.35;;;8.30;99.90;;;;;;4194450;28;20473;-71
2023/11/11 04:28:28;;;;;;;4.20;2.28;;;8.30;99.90;;;;;;4192980;28;20029;-70
2023/11/11 04:30:29;;;;;;;3.50;1.80;;;8.30;99.90;;;;;;4162885;28;20063;-71
2023/11/11 04:32:30;;;;;;;3.85;2.53;;;8.30;99.90;;;;;;4162307;28;20029;-71
2023/11/11 04:34:30;;;;;;;4.20;1.92;;;8.30;99.90;;;;;;4172770;28;20393;-70
2023/11/11 04:36:31;;;;;;;3.38;2.45;;;8.30;99.90;;;;;;4177802;28;20036;-71
2023/11/11 04:38:32;;;;;;;6.57;2.15;;;8.30;99.90;;;;;;4177538;28;20116;-71
2023/11/11 04:40:32;;;;;;;5.80;1.75;;;8.30;99.90;;;;;;4162525;28;20041;-70
2023/11/11 04:42:33;;;;;;;4.97;1.88;;;8.30;99.90;;;;;;4162294;28;20481;-71
2023/11/11 04:44:33;;;;;;;3.13;1.73;;;8.20;99.90;;;;;;4164167;28;20041;-70
2023/11/11 04:46:34;;;;;;;4.18;1.77;;;8.30;99.90;;;;;;4165442;28;20119;-70
2023/11/11 04:48:35;;;;;;;3.83;1.48;;;8.30;99.90;;;;;;4177425;28;20048;-71
2023/11/11 04:50:35;;;;;;;4.20;2.00;;;8.30;99.90;;;;;;4175562;28;20040;-71
2023/11/11 04:52:38;;;;;;;5.88;2.15;;;8.30;99.90;;;;;;4175519;28;20033;-71
2023/11/11 04:54:39;;;;;;;3.97;1.85;;;8.30;99.90;;;;;;4164707;28;20045;-71
2023/11/11 04:56:39;;;;;;;3.95;1.60;;;8.30;99.90;;;;;;4159559;28;20040;-71
2023/11/11 04:58:40;;;;;;;2.78;1.50;;;8.30;99.90;;;;;;4160836;28;20385;-70
2023/11/11 05:00:41;;;;;;;2.40;1.02;;;8.30;99.90;;;;;;4187695;28;20028;-71
2023/11/11 05:02:43;;;;;;;1.92;1.10;;;8.30;99.90;;;;;;4172241;28;20497;-71
2023/11/11 05:04:44;;;;;;;4.20;1.13;;;8.20;99.90;;;;;;4175597;28;20382;-70
2023/11/11 05:06:45;;;;;;;3.97;1.13;;;8.20;99.90;;;;;;4176399;28;20047;-70
2023/11/11 05:08:46;;;;;;;3.20;0.68;;;8.20;99.90;;;;;;4175160;28;20065;-70
2023/11/11 05:10:46;;;;;;;2.83;0.88;;;8.20;99.90;;;;;;4172923;28;20037;-71
2023/11/11 05:12:51;;;;;;;0.98;0.40;;;8.20;99.90;;;;;;4178666;28;20032;-70
2023/11/11 05:14:54;;;;;;;3.33;0.73;;;8.10;99.90;;;;;;4182953;28;20144;-71
2023/11/11 05:16:55;;;;;;;1.80;0.52;;;8.10;99.90;;;;;;4182321;28;20037;-70
2023/11/11 05:18:55;;;;;;;1.88;0.73;;;8.10;99.90;;;;;;4181312;28;20022;-70
2023/11/11 05:20:57;;;;;;;1.90;0.70;;;8.20;99.90;;;;;;4178784;28;20405;-71
2023/11/11 05:22:57;;;;;;;1.35;0.50;;;8.20;99.90;;;;;;4175596;28;20025;-70
2023/11/11 05:24:58;;;;;;;0.73;0.40;;;8.20;99.90;;;;;;4189623;28;20028;-71
2023/11/11 05:26:58;;;;;;;1.10;0.47;;;8.20;99.90;;;;;;4169020;28;20044;-70
2023/11/11 05:28:59;;;;;;;2.70;0.60;;;8.20;99.90;;;;;;4174143;28;20030;-70
2023/11/11 05:31:00;;;;;;;2.95;0.80;;;8.20;99.90;;;;;;4174484;28;20037;-70
2023/11/11 05:33:01;;;;;;;1.10;0.40;;;8.20;99.90;;;;;;4178087;28;20466;-70
2023/11/11 05:35:02;;;;;;;2.83;0.82;;;8.10;99.90;;;;;;4175281;28;20056;-71
2023/11/11 05:37:03;;;;;;;2.05;0.50;;;8.10;99.90;;;;;;4176393;28;20036;-71
2023/11/11 05:39:04;;;;;;;0.85;0.45;;;8.10;99.90;;;;;;4170899;28;20033;-71
2023/11/11 05:41:05;;;;;;;5.03;0.80;;;8.10;99.90;;;;;;4176331;28;20107;-71
2023/11/11 05:43:07;;;;;;;2.08;0.65;;;8.10;99.90;;;;;;4170292;28;20030;-71
2023/11/11 05:45:10;;;;;;;3.67;0.40;;;8.10;99.90;;;;;;4173379;28;20034;-71
2023/11/11 05:47:11;;;;;;;;;;;8.10;99.90;;;;;;4164721;28;20033;-69
2023/11/11 05:49:11;;;;;;;1.77;0.60;;;8.10;99.90;;;;;;4174840;28;20345;-70
2023/11/11 05:51:12;;;;;;;1.23;0.50;;;8.10;99.90;;;;;;4158539;28;20070;-70
2023/11/11 05:53:14;;;;;;;1.35;0.73;;;8.10;99.90;;;;;;4164284;28;20071;-70
2023/11/11 05:55:14;;;;;;;1.85;0.40;;;8.20;99.90;;;;;;4174768;28;20037;-71
2023/11/11 05:57:15;;;;;;;2.67;0.50;;;8.20;99.90;;;;;;4176786;28;20416;-70
2023/11/11 05:59:16;;;;;;;2.63;0.70;;;8.20;99.90;;;;;;4188459;28;20127;-70
2023/11/11 06:01:17;;;;;;;2.83;1.23;;;8.20;99.90;;;;;;4172535;28;20032;-70
2023/11/11 06:03:18;;;;;;;3.22;1.50;;;8.20;99.90;;;;;;4177140;28;20029;-70
2023/11/11 06:05:18;;;;;;;2.85;1.20;;;8.20;99.90;;;;;;4174406;28;20041;-71
2023/11/11 06:07:20;;;;;;;2.90;0.90;;;8.20;99.90;;;;;;4176001;28;20378;-70
2023/11/11 06:09:22;;;;;;;3.33;1.25;;;8.30;99.90;;;;;;4174389;28;20025;-70
2023/11/11 06:11:23;;;;;;;3.53;1.00;;;8.20;99.90;;;;;;4173032;28;20064;-70
2023/11/11 06:13:24;;;;;;;2.47;1.10;;;8.20;99.90;;;;;;4173832;28;20483;-70
2023/11/11 06:15:25;;;;;;;2.85;1.40;;;8.20;99.90;;;;;;4169350;28;20051;-70
2023/11/11 06:17:25;;;;;;;3.65;1.70;;;8.20;99.90;;;;;;4174886;28;20044;-70
2023/11/11 06:19:26;;;;;;;5.88;2.20;;;8.20;99.90;;;;;;4173209;28;20116;-69
2023/11/11 06:21:27;;;;;;;5.18;1.92;;;8.10;99.90;;;;;;4172065;28;20438;-70
2023/11/11 06:23:28;;;;;;;7.18;2.38;;;8.10;99.90;;;;;;4172979;28;20435;-69
2023/11/11 06:25:31;;;;;;;3.90;2.13;;;8.10;99.90;;;;;;4172346;28;20095;-70
2023/11/11 06:27:31;;;;;;;;;;;8.10;99.90;;;;;;4175037;28;20120;-70
2023/11/11 06:29:32;;;;;;;6.68;2.83;;;8.10;99.90;;;;;;4170353;28;19920;-71
2023/11/11 06:31:32;;;;;;;8.85;2.92;;;8.10;99.90;;;;;;4189352;28;20102;-70
2023/11/11 06:33:33;;;;;;;7.57;3.47;;;8.00;99.90;;;;;;4176286;28;20033;-69
2023/11/11 06:35:34;;;;;;;7.47;2.97;;;8.00;99.90;;;;;;4173558;28;20083;-70
2023/11/11 06:37:38;;;;;;;11.30;3.50;;;8.00;99.90;;;;;;4169489;28;20029;-70
2023/11/11 06:39:38;;;;;;;6.82;3.47;;;8.10;99.90;;;;;;4173049;28;20041;-70
2023/11/11 06:41:41;;;;;;;7.43;3.60;;;8.10;99.90;;;;;;4174547;28;20140;-70
2023/11/11 06:43:41;;;;;;;8.45;4.13;;;8.00;99.90;;;;;;4175414;28;20481;-70
2023/11/11 06:45:42;;;;;;;7.93;3.38;;;8.00;99.90;;;;;;4166700;28;20032;-70
2023/11/11 06:47:42;;;;;;;8.60;3.70;;;8.00;99.90;;;;;;4164445;28;20045;-69
2023/11/11 06:49:43;;;;;;;8.30;3.95;;;8.00;99.90;;;;;;4175104;28;20033;-71
2023/11/11 06:51:44;;;;;;;8.55;4.00;;;8.00;99.90;;;;;;4175373;28;20054;-71
2023/11/11 06:53:44;;;;;;;9.20;4.15;;;8.00;99.90;;;;;;4173278;28;20131;-71
2023/11/11 06:55:48;;;;;;;7.93;3.83;;;8.00;99.90;;;;;;4172426;28;20042;-71
2023/11/11 06:57:49;;;;;;;11.02;3.92;;;8.00;99.90;;;;;;4175089;28;20029;-68
2023/11/11 06:59:49;;;;;;;7.35;3.22;;;8.00;99.90;;;;;;4188904;28;20462;-68
2023/11/11 07:01:50;;;;;;;8.77;4.40;;;8.10;99.90;;;;;;4173904;28;20044;-68
2023/11/11 07:03:51;;;;;;;9.60;4.00;;;8.10;99.90;;;;;;4176328;28;20460;-68
2023/11/11 07:05:52;;;;;;;11.40;4.70;;;8.10;99.90;;;;;;4170438;28;20052;-68
2023/11/11 07:07:52;;;;;;;8.00;4.10;;;8.10;99.90;;;;;;4175281;28;20041;-68
2023/11/11 07:09:53;;;;;;;7.75;4.25;;;8.00;99.90;;;;;;4171955;28;20041;-68
2023/11/11 07:11:54;;;;;;;9.15;3.97;;;8.10;99.90;;;;;;4177442;28;20473;-68
2023/11/11 07:13:55;;;;;;;9.35;3.88;;;8.00;99.90;;;;;;4193664;28;20044;-68
2023/11/11 07:15:56;;;;;;;7.20;3.42;;;8.10;99.90;;;;;;4183031;28;20460;-68
2023/11/11 07:17:56;;;;;;;7.80;3.97;;;8.10;99.90;;;;;;4184651;28;20064;-68
2023/11/11 07:19:57;;;;;;;14.23;5.95;;;8.10;99.90;;;;;;4180070;28;20434;-68
2023/11/11 07:21:58;;;;;;;10.77;4.80;;;8.00;99.90;;;;;;4179801;28;20033;-67
2023/11/11 07:23:59;;;;;;;10.63;3.92;;;8.00;99.90;;;;;;4166102;28;20096;-68
2023/11/11 07:25:59;;;;;;;9.00;4.05;;;8.10;99.90;;;;;;4173858;28;20025;-68
2023/11/11 07:28:04;;;;;;;7.47;3.50;;;8.00;99.90;;;;;;4174922;28;20032;-68
2023/11/11 07:30:09;;;;;;;11.80;4.40;;;8.10;99.90;;;;;;4173837;28;20046;-68
2023/11/11 07:32:12;;;;;;;8.55;4.25;;;8.00;99.90;;;;;;4177148;28;20518;-68
2023/11/11 07:34:13;;;;;;;9.30;4.10;;;8.10;99.90;;;;;;4194503;28;20423;-68
2023/11/11 07:36:13;;;;;;;8.52;4.60;;;8.10;99.90;;;;;;4192599;28;20036;-68
2023/11/11 07:38:14;;;;;;;12.98;4.70;;;8.10;99.90;;;;;;4172114;28;20120;-67
2023/11/11 07:40:16;;;;;;;8.32;4.75;;;8.00;99.90;;;;;;4171136;28;20033;-68
2023/11/11 07:42:16;;;;;;;8.88;4.50;;;8.10;99.90;;;;;;4178753;28;20484;-68
2023/11/11 07:44:17;;;;;;;8.10;4.50;;;8.10;99.90;;;;;;4195803;28;20032;-68
2023/11/11 07:46:19;;;;;;;13.45;5.32;;;8.00;99.90;;;;;;4178363;28;20481;-68
2023/11/11 07:48:19;;;;;;;11.93;5.15;;;8.00;99.90;;;;;;4178566;28;20029;-68
2023/11/11 07:50:21;;;;;;;8.20;4.38;;;8.00;99.90;;;;;;4173352;28;20191;-67
2023/11/11 07:52:23;;;;;;;10.13;4.75;;;8.00;99.90;;;;;;4178787;28;20029;-68
2023/11/11 07:54:23;;;;;;;9.23;4.22;;;8.10;99.90;;;;;;4166139;28;20523;-68
2023/11/11 07:56:24;;;;;;;10.52;5.50;;;8.10;99.90;;;;;;4166395;28;20071;-68
2023/11/11 07:58:25;;;;;;;7.55;4.50;;;8.10;99.90;;;;;;4178976;28;20425;-68
2023/11/11 08:00:25;;;;;;;12.55;4.90;;;8.20;99.90;;;;;;4179010;28;20036;-67
2023/11/11 08:02:26;;;;;;;11.30;4.75;;;8.20;99.90;;;;;;4183645;28;20033;-68
2023/11/11 08:04:27;;;;;;;8.68;4.72;;;8.20;99.90;;;;;;4179807;28;20048;-68
2023/11/11 08:06:27;;;;;;;15.38;6.13;;;8.20;99.90;;;;;;4169128;28;20120;-68
2023/11/11 08:08:29;;;;;;;11.95;6.50;;;8.30;99.90;;;;;;4172209;28;20047;-68
2023/11/11 08:10:31;;;;;;;10.17;6.33;;;8.30;99.90;;;;;;4172514;28;20120;-68
2023/11/11 08:12:32;;;;;;;13.77;8.45;;;8.30;99.90;;;;;;4172899;28;20045;-68
2023/11/11 08:14:32;;;;;;;13.52;7.03;;;8.30;99.90;;;;;;4173585;28;20524;-68
2023/11/11 08:16:34;;;;;;;12.63;5.65;;;8.30;99.90;;;;;;4171278;28;20598;-67
2023/11/11 08:18:36;;;;;;;9.05;5.22;;;8.30;99.90;;;;;;4172602;28;20096;-68
2023/11/11 08:20:37;;;;;;;10.70;6.20;;;8.30;99.90;;;;;;4170423;28;20094;-68
2023/11/11 08:22:39;;;;;;;13.75;6.82;;;8.30;99.90;;;;;;4172070;28;20041;-67
2023/11/11 08:24:40;;;;;;;10.38;6.25;;;8.40;99.90;;;;;;4173958;28;20041;-68
2023/11/11 08:26:41;;;;;;;10.25;5.82;;;8.30;99.90;;;;;;4173534;28;20482;-68
2023/11/11 08:28:41;;;;;;;10.02;6.07;;;8.30;99.90;;;;;;4174347;28;20159;-67
2023/11/11 08:30:42;;;;;;;12.27;6.45;;;8.40;99.90;;;;;;4173326;28;20040;-68
2023/11/11 08:32:43;;;;;;;14.00;6.97;;;8.40;99.90;;;;;;4174224;28;20048;-68
2023/11/11 08:34:43;;;;;;;10.30;5.63;;;8.40;99.90;;;;;;4175278;28;20041;-68
2023/11/11 08:36:44;;;;;;;10.65;5.75;;;8.40;99.90;;;;;;4174288;28;20091;-68
2023/11/11 08:38:44;;;;;;;13.45;7.05;;;8.40;99.90;;;;;;4173669;28;20076;-67
2023/11/11 08:40:45;;;;;;;15.95;6.57;;;8.40;99.90;;;;;;4169936;28;20847;-67
2023/11/11 08:42:46;;;;;;;11.70;6.55;;;8.40;99.90;;;;;;4173859;28;20400;-67
2023/11/11 08:44:49;;;;;;;10.63;7.00;;;8.30;99.90;;;;;;4172705;28;20512;-67
2023/11/11 08:46:49;;;;;;;11.70;6.65;;;8.40;99.90;;;;;;4172011;28;20090;-67
2023/11/11 08:48:51;;;;;;;11.90;5.97;;;8.30;99.90;;;;;;4173375;28;20049;-67
2023/11/11 08:50:53;;;;;;;11.65;5.78;;;8.30;99.90;;;;;;4173342;28;20068;-67
2023/11/11 08:52:53;;;;;;;12.02;6.63;;;8.30;99.90;;;;;;4174995;28;20072;-67
2023/11/11 08:54:54;;;;;;;12.70;7.35;;;8.30;99.90;;;;;;4172641;28;20048;-67
2023/11/11 08:56:54;;;;;;;14.82;7.05;;;8.30;99.90;;;;;;4174013;28;20056;-67
2023/11/11 08:58:55;;;;;;;16.02;7.95;;;8.30;99.90;;;;;;4170953;28;20044;-67
2023/11/11 09:00:56;;;;;;;14.52;8.27;;;8.30;99.90;;;;;;4169915;28;20515;-67
2023/11/11 09:02:57;;;;;;;17.63;7.28;;;8.30;99.90;;;;;;4173255;28;20041;-67
2023/11/11 09:04:58;;;;;;;14.07;7.68;;;8.30;99.90;;;;;;4172308;28;20029;-67
2023/11/11 09:06:59;;;;;;;12.50;6.90;;;8.30;99.90;;;;;;4178331;28;20400;-67
2023/11/11 09:09:00;;;;;;;13.70;7.93;;;8.30;99.90;;;;;;4184202;28;20025;-67
2023/11/11 09:11:01;;;;;;;14.00;7.45;;;8.30;99.90;;;;;;4184950;28;20033;-67
2023/11/11 09:13:02;;;;;;;16.98;7.53;;;8.30;99.90;;;;;;4173773;28;20059;-67
2023/11/11 09:15:05;;;;;;;13.25;6.78;;;8.30;99.90;;;;;;4175028;28;20052;-68
2023/11/11 09:17:06;;;;;;;14.43;7.38;;;8.40;99.90;;;;;;4173753;28;20115;-68
2023/11/11 09:19:06;;;;;;;14.35;8.20;;;8.30;99.90;;;;;;4189695;28;20487;-67
2023/11/11 09:21:07;;;;;;;16.98;8.45;;;8.40;99.90;;;;;;4174453;28;20377;-67
2023/11/11 09:23:08;;;;;;;13.27;7.95;;;8.40;99.90;;;;;;4172062;28;20508;-67
2023/11/11 09:25:09;;;;;;;15.60;8.02;;;8.40;99.90;;;;;;4174022;28;20163;-69
2023/11/11 09:27:10;;;;;;;19.25;9.18;;;8.40;99.90;;;;;;4174591;28;20049;-68
2023/11/11 09:29:15;;;;;;;12.68;7.80;;;8.40;99.90;;;;;;4172176;28;20471;-68
2023/11/11 09:31:16;;;;;;;14.90;7.88;;;8.40;99.90;;;;;;4173993;28;20516;-68
2023/11/11 09:33:17;;;;;;;12.45;8.02;;;8.30;99.90;;;;;;4167830;28;20063;-68
2023/11/11 09:35:17;;;;;;;11.90;7.18;;;8.40;99.90;;;;;;4174585;28;20057;-68
2023/11/11 09:37:18;;;;;;;16.58;9.00;;;8.40;99.90;;;;;;4174337;28;20098;-69
2023/11/11 09:39:19;;;;;;;14.68;7.55;;;8.40;99.90;;;;;;4173897;28;20040;-68
2023/11/11 09:41:21;;;;;;;13.25;7.32;;;8.40;99.90;;;;;;4172571;28;20033;-68
2023/11/11 09:43:21;;;;;;;14.90;7.95;;;8.40;99.90;;;;;;4171660;28;20485;-69
2023/11/11 09:45:23;;;;;;;13.07;7.40;;;8.40;99.90;;;;;;4171975;28;20041;-68
2023/11/11 09:47:28;;;;;;;13.75;7.45;;;8.50;99.90;;;;;;4172284;28;20544;-68
2023/11/11 09:49:30;;;;;;;11.90;6.75;;;8.50;99.90;;;;;;4177286;28;20098;-68
2023/11/11 09:51:32;;;;;;;16.65;8.48;;;8.50;99.90;;;;;;4177546;28;20025;-68
2023/11/11 09:53:36;;;;;;;14.43;8.38;;;8.50;99.90;;;;;;4176848;28;20103;-68
2023/11/11 09:55:38;;;;;;;14.05;8.35;;;8.50;99.90;;;;;;4175875;28;20040;-68
2023/11/11 09:57:38;;;;;;;16.95;8.70;;;8.60;99.90;;;;;;4175160;28;20037;-69
2023/11/11 09:59:40;;;;;;;15.82;7.82;;;8.50;99.90;;;;;;4176626;28;20167;-68
2023/11/11 10:01:42;;;;;;;13.80;7.13;;;8.50;99.90;;;;;;4176394;28;20102;-69
2023/11/11 10:03:43;;;;;;;12.40;6.23;;;8.50;99.90;;;;;;4176134;28;20037;-68
2023/11/11 10:05:44;;;;;;;14.80;7.10;;;8.50;99.90;;;;;;4174295;28;20547;-68
2023/11/11 10:07:46;;;;;;;9.77;6.57;;;8.50;99.90;;;;;;4177093;28;20029;-68
2023/11/11 10:09:46;;;;;;;13.65;7.20;;;8.60;99.90;;;;;;4176191;28;20466;-68
2023/11/11 10:11:48;;;;;;;13.95;6.75;;;8.60;99.90;;;;;;4174925;28;20147;-68
2023/11/11 10:13:53;;;;;;;11.93;6.60;;;8.60;99.90;;;;;;4174763;28;20408;-68
2023/11/11 10:16:13;;;;;;;12.88;6.55;;;8.60;99.90;;;;;;4172638;28;20033;-68
2023/11/11 10:18:14;;;;;;;17.42;7.05;;;8.70;99.90;;;;;;4158258;28;20036;-68
2023/11/11 10:20:15;;;;;;;13.38;6.68;;;8.70;99.90;;;;;;4159140;28;20122;-68
2023/11/11 10:22:16;;;;;;;15.25;7.13;;;8.70;99.90;;;;;;4160719;28;20041;-68
2023/11/11 10:24:16;;;;;;;15.13;6.53;;;8.80;99.90;;;;;;4160187;28;20072;-69
2023/11/11 10:26:20;;;;;;;14.50;7.22;;;8.80;99.90;;;;;;4159513;28;20041;-68
2023/11/11 10:28:20;;;;;;;9.88;6.05;;;8.80;99.90;;;;;;4155037;28;20113;-68
2023/11/11 10:30:25;;;;;;;13.25;6.78;;;8.90;99.90;;;;;;4170036;28;20044;-68
2023/11/11 10:32:27;;;;;;;13.85;6.43;;;8.90;99.90;;;;;;4160207;28;20041;-68
2023/11/11 10:34:28;;;;;;;14.88;7.00;;;8.90;99.90;;;;;;4171502;28;20037;-68
2023/11/11 10:36:41;;;;;;;10.45;6.55;;;8.90;99.90;;;;;;4173378;28;20172;-68